Time;durP1;ratioP1;P1;durP2;ratioP2;P2;SDS_P1;SDS_P2;PMS_P1;PMS_P2;Temp;Humidity;BMP_temperature;BMP_pressure;BME280_temperature;BME280_humidity;BME280_pressure;Samples;Min_cycle;Max_cycle;Signal;HPM_P1;HPM_P2
2019/08/24 00:00:35;;;;;;;30.3;26.7;;;;;;;17.22;100;95756.55;;;;
2019/08/24 00:02:07;;;;;;;30.3;26.7;;;;;;;17.22;100;95756.55;;;;
2019/08/24 00:03:10;;;;;;;30.3;26.7;;;;;;;17.22;100;95756.55;;;;
2019/08/24 00:04:13;;;;;;;30.3;26.7;;;;;;;17.22;100;95756.55;;;;
2019/08/24 00:05:15;;;;;;;30.3;26.7;;;;;;;17.22;100;95756.55;;;;
2019/08/24 00:06:18;;;;;;;30.3;26.7;;;;;;;17.22;100;95756.55;;;;
2019/08/24 00:07:21;;;;;;;30.3;26.7;;;;;;;17.22;100;95756.55;;;;
2019/08/24 00:08:24;;;;;;;27.25;24.4;;;;;;;16.84;100;95755.5;;;;
2019/08/24 00:09:26;;;;;;;27.25;24.4;;;;;;;16.84;100;95755.5;;;;
2019/08/24 00:10:29;;;;;;;27.25;24.4;;;;;;;16.84;100;95755.5;;;;
2019/08/24 00:11:31;;;;;;;27.25;24.4;;;;;;;16.84;100;95755.5;;;;
2019/08/24 00:12:34;;;;;;;27.25;24.4;;;;;;;16.84;100;95755.5;;;;
2019/08/24 00:13:37;;;;;;;27.25;24.4;;;;;;;16.84;100;95755.5;;;;
2019/08/24 00:14:39;;;;;;;27.25;24.4;;;;;;;16.84;100;95755.5;;;;
2019/08/24 00:15:40;;;;;;;27.25;24.4;;;;;;;16.84;100;95755.5;;;;
2019/08/24 00:16:42;;;;;;;27.25;24.4;;;;;;;16.84;100;95755.5;;;;
2019/08/24 00:17:44;;;;;;;27.25;24.4;;;;;;;16.84;100;95755.5;;;;
2019/08/24 00:18:47;;;;;;;27.25;24.4;;;;;;;16.84;100;95755.5;;;;
2019/08/24 00:19:49;;;;;;;29.45;25.9;;;;;;;16.6;100;95747.45;;;;
2019/08/24 00:20:51;;;;;;;29.45;25.9;;;;;;;16.6;100;95747.45;;;;
2019/08/24 00:21:53;;;;;;;29.45;25.9;;;;;;;16.6;100;95747.45;;;;
2019/08/24 00:22:55;;;;;;;29.45;25.9;;;;;;;16.6;100;95747.45;;;;
2019/08/24 00:23:56;;;;;;;29.45;25.9;;;;;;;16.6;100;95747.45;;;;
2019/08/24 00:24:58;;;;;;;29.45;25.9;;;;;;;16.6;100;95747.45;;;;
2019/08/24 00:26:00;;;;;;;29.45;25.9;;;;;;;16.6;100;95747.45;;;;
2019/08/24 00:27:02;;;;;;;29.45;25.9;;;;;;;16.6;100;95747.45;;;;
2019/08/24 00:28:04;;;;;;;29.45;25.9;;;;;;;16.6;100;95747.45;;;;
2019/08/24 00:29:06;;;;;;;29.45;25.9;;;;;;;16.6;100;95747.45;;;;
2019/08/24 00:30:08;;;;;;;31.1;27.95;;;;;;;16.46;100;95748.92;;;;
2019/08/24 00:31:12;;;;;;;31.1;27.95;;;;;;;16.46;100;95748.92;;;;
2019/08/24 00:32:14;;;;;;;31.1;27.95;;;;;;;16.46;100;95748.92;;;;
2019/08/24 00:33:16;;;;;;;31.1;27.95;;;;;;;16.46;100;95748.92;;;;
2019/08/24 00:34:19;;;;;;;31.1;27.95;;;;;;;16.46;100;95748.92;;;;
2019/08/24 00:35:21;;;;;;;31.1;27.95;;;;;;;16.46;100;95748.92;;;;
2019/08/24 00:36:23;;;;;;;31.1;27.95;;;;;;;16.46;100;95748.92;;;;
2019/08/24 00:37:25;;;;;;;31.1;27.95;;;;;;;16.46;100;95748.92;;;;
2019/08/24 00:38:26;;;;;;;31.1;27.95;;;;;;;16.46;100;95748.92;;;;
2019/08/24 00:39:29;;;;;;;31.1;27.95;;;;;;;16.46;100;95748.92;;;;
2019/08/24 00:40:31;;;;;;;30.2;27.1;;;;;;;16.35;100;95736.33;;;;
2019/08/24 00:41:35;;;;;;;30.2;27.1;;;;;;;16.35;100;95736.33;;;;
2019/08/24 00:42:37;;;;;;;30.2;27.1;;;;;;;16.35;100;95736.33;;;;
2019/08/24 00:43:39;;;;;;;30.2;27.1;;;;;;;16.35;100;95736.33;;;;
2019/08/24 00:44:41;;;;;;;30.2;27.1;;;;;;;16.35;100;95736.33;;;;
2019/08/24 00:45:43;;;;;;;30.2;27.1;;;;;;;16.35;100;95736.33;;;;
2019/08/24 00:46:44;;;;;;;30.2;27.1;;;;;;;16.35;100;95736.33;;;;
2019/08/24 00:47:46;;;;;;;30.2;27.1;;;;;;;16.35;100;95736.33;;;;
2019/08/24 00:48:48;;;;;;;30.2;27.1;;;;;;;16.35;100;95736.33;;;;
2019/08/24 00:49:51;;;;;;;30.2;27.1;;;;;;;16.35;100;95736.33;;;;
2019/08/24 00:50:52;;;;;;;30.4;27.1;;;;;;;16.09;100;95732.15;;;;
2019/08/24 00:51:55;;;;;;;30.4;27.1;;;;;;;16.09;100;95732.15;;;;
2019/08/24 00:52:56;;;;;;;30.4;27.1;;;;;;;16.09;100;95732.15;;;;
2019/08/24 00:53:58;;;;;;;30.4;27.1;;;;;;;16.09;100;95732.15;;;;
2019/08/24 00:55:00;;;;;;;30.4;27.1;;;;;;;16.09;100;95732.15;;;;
2019/08/24 00:56:03;;;;;;;30.4;27.1;;;;;;;16.09;100;95732.15;;;;
2019/08/24 00:57:05;;;;;;;30.4;27.1;;;;;;;16.09;100;95732.15;;;;
2019/08/24 00:58:06;;;;;;;30.4;27.1;;;;;;;16.09;100;95732.15;;;;
2019/08/24 00:59:08;;;;;;;30.4;27.1;;;;;;;16.09;100;95732.15;;;;
2019/08/24 01:00:10;;;;;;;30.4;27.1;;;;;;;16.09;100;95732.15;;;;
2019/08/24 01:01:14;;;;;;;29.5;26.35;;;;;;;15.9;100;95724.62;;;;
2019/08/24 01:02:26;;;;;;;29.5;26.35;;;;;;;15.9;100;95724.62;;;;
2019/08/24 01:03:28;;;;;;;29.5;26.35;;;;;;;15.9;100;95724.62;;;;
2019/08/24 01:04:30;;;;;;;29.5;26.35;;;;;;;15.9;100;95724.62;;;;
2019/08/24 01:05:32;;;;;;;29.5;26.35;;;;;;;15.9;100;95724.62;;;;
2019/08/24 01:06:34;;;;;;;29.5;26.35;;;;;;;15.9;100;95724.62;;;;
2019/08/24 01:07:36;;;;;;;29.5;26.35;;;;;;;15.9;100;95724.62;;;;
2019/08/24 01:08:37;;;;;;;29.5;26.35;;;;;;;15.9;100;95724.62;;;;
2019/08/24 01:09:39;;;;;;;29.5;26.35;;;;;;;15.9;100;95724.62;;;;
2019/08/24 01:10:42;;;;;;;29.5;26.35;;;;;;;15.9;100;95724.62;;;;
2019/08/24 01:11:44;;;;;;;29.5;26.35;;;;;;;15.9;100;95724.62;;;;
2019/08/24 01:12:47;;;;;;;29.6;26.55;;;;;;;15.66;100;95722.33;;;;
2019/08/24 01:13:49;;;;;;;29.6;26.55;;;;;;;15.66;100;95722.33;;;;
2019/08/24 01:14:53;;;;;;;29.6;26.55;;;;;;;15.66;100;95722.33;;;;
2019/08/24 01:15:55;;;;;;;29.6;26.55;;;;;;;15.66;100;95722.33;;;;
2019/08/24 01:16:56;;;;;;;29.6;26.55;;;;;;;15.66;100;95722.33;;;;
2019/08/24 01:17:59;;;;;;;29.6;26.55;;;;;;;15.66;100;95722.33;;;;
2019/08/24 01:19:00;;;;;;;29.6;26.55;;;;;;;15.66;100;95722.33;;;;
2019/08/24 01:20:04;;;;;;;29.6;26.55;;;;;;;15.66;100;95722.33;;;;
2019/08/24 01:21:09;;;;;;;29.6;26.55;;;;;;;15.66;100;95722.33;;;;
2019/08/24 01:22:11;;;;;;;29.6;26.55;;;;;;;15.66;100;95722.33;;;;
2019/08/24 01:23:13;;;;;;;30.2;27.09999;;;;;;;15.49;100;95720.25;;;;
2019/08/24 01:24:16;;;;;;;30.2;27.09999;;;;;;;15.49;100;95720.25;;;;
2019/08/24 01:25:19;;;;;;;30.2;27.09999;;;;;;;15.49;100;95720.25;;;;
2019/08/24 01:26:22;;;;;;;30.2;27.09999;;;;;;;15.49;100;95720.25;;;;
2019/08/24 01:27:24;;;;;;;30.2;27.09999;;;;;;;15.49;100;95720.25;;;;
2019/08/24 01:28:27;;;;;;;30.2;27.09999;;;;;;;15.49;100;95720.25;;;;
2019/08/24 01:29:29;;;;;;;30.2;27.09999;;;;;;;15.49;100;95720.25;;;;
2019/08/24 01:30:30;;;;;;;30.2;27.09999;;;;;;;15.49;100;95720.25;;;;
2019/08/24 01:31:32;;;;;;;30.2;27.09999;;;;;;;15.49;100;95720.25;;;;
2019/08/24 01:32:35;;;;;;;30.2;27.09999;;;;;;;15.49;100;95720.25;;;;
2019/08/24 01:33:38;;;;;;;30.54999;27.35;;;;;;;15.27;100;95714.39;;;;
2019/08/24 01:34:41;;;;;;;30.54999;27.35;;;;;;;15.27;100;95714.39;;;;
2019/08/24 01:35:44;;;;;;;30.54999;27.35;;;;;;;15.27;100;95714.39;;;;
2019/08/24 01:36:46;;;;;;;30.54999;27.35;;;;;;;15.27;100;95714.39;;;;
2019/08/24 01:37:47;;;;;;;30.54999;27.35;;;;;;;15.27;100;95714.39;;;;
2019/08/24 01:38:49;;;;;;;30.54999;27.35;;;;;;;15.27;100;95714.39;;;;
2019/08/24 01:39:51;;;;;;;30.54999;27.35;;;;;;;15.27;100;95714.39;;;;
2019/08/24 01:40:56;;;;;;;30.54999;27.35;;;;;;;15.27;100;95714.39;;;;
2019/08/24 01:41:59;;;;;;;30.54999;27.35;;;;;;;15.27;100;95714.39;;;;
2019/08/24 01:43:01;;;;;;;30.54999;27.35;;;;;;;15.27;100;95714.39;;;;
2019/08/24 01:44:05;;;;;;;30.75;27.45;;;;;;;15.14;100;95719.68;;;;
2019/08/24 01:45:06;;;;;;;30.75;27.45;;;;;;;15.14;100;95719.68;;;;
2019/08/24 01:46:22;;;;;;;30.75;27.45;;;;;;;15.14;100;95719.68;;;;
2019/08/24 01:47:24;;;;;;;30.75;27.45;;;;;;;15.14;100;95719.68;;;;
2019/08/24 01:48:26;;;;;;;30.75;27.45;;;;;;;15.14;100;95719.68;;;;
2019/08/24 01:49:30;;;;;;;30.75;27.45;;;;;;;15.14;100;95719.68;;;;
2019/08/24 01:50:31;;;;;;;30.75;27.45;;;;;;;15.14;100;95719.68;;;;
2019/08/24 01:51:34;;;;;;;30.75;27.45;;;;;;;15.14;100;95719.68;;;;
2019/08/24 01:52:36;;;;;;;30.75;27.45;;;;;;;15.14;100;95719.68;;;;
2019/08/24 01:53:38;;;;;;;30.75;27.45;;;;;;;15.14;100;95719.68;;;;
2019/08/24 01:54:39;;;;;;;29.65;26.55;;;;;;;14.98;100;95719.73;;;;
2019/08/24 01:55:41;;;;;;;29.65;26.55;;;;;;;14.98;100;95719.73;;;;
2019/08/24 01:56:43;;;;;;;29.65;26.55;;;;;;;14.98;100;95719.73;;;;
2019/08/24 01:57:44;;;;;;;29.65;26.55;;;;;;;14.98;100;95719.73;;;;
2019/08/24 01:58:47;;;;;;;29.65;26.55;;;;;;;14.98;100;95719.73;;;;
2019/08/24 01:59:48;;;;;;;29.65;26.55;;;;;;;14.98;100;95719.73;;;;
2019/08/24 02:00:50;;;;;;;29.65;26.55;;;;;;;14.98;100;95719.73;;;;
2019/08/24 02:01:53;;;;;;;29.65;26.55;;;;;;;14.98;100;95719.73;;;;
2019/08/24 02:02:54;;;;;;;29.65;26.55;;;;;;;14.98;100;95719.73;;;;
2019/08/24 02:03:59;;;;;;;29.65;26.55;;;;;;;14.98;100;95719.73;;;;
2019/08/24 02:05:02;;;;;;;28.65;25.55;;;;;;;14.89;100;95716.22;;;;
2019/08/24 02:06:05;;;;;;;28.65;25.55;;;;;;;14.89;100;95716.22;;;;
2019/08/24 02:07:08;;;;;;;28.65;25.55;;;;;;;14.89;100;95716.22;;;;
2019/08/24 02:08:10;;;;;;;28.65;25.55;;;;;;;14.89;100;95716.22;;;;
2019/08/24 02:09:16;;;;;;;28.65;25.55;;;;;;;14.89;100;95716.22;;;;
2019/08/24 02:10:33;;;;;;;28.65;25.55;;;;;;;14.89;100;95716.22;;;;
2019/08/24 02:11:39;;;;;;;28.65;25.55;;;;;;;14.89;100;95716.22;;;;
2019/08/24 02:12:46;;;;;;;28.65;25.55;;;;;;;14.89;100;95716.22;;;;
2019/08/24 02:13:48;;;;;;;28.65;25.55;;;;;;;14.89;100;95716.22;;;;
2019/08/24 02:14:50;;;;;;;28.65;25.55;;;;;;;14.89;100;95716.22;;;;
2019/08/24 02:15:52;;;;;;;26.65;23.85;;;;;;;14.73;100;95706.64;;;;
2019/08/24 02:16:54;;;;;;;26.65;23.85;;;;;;;14.73;100;95706.64;;;;
2019/08/24 02:17:56;;;;;;;26.65;23.85;;;;;;;14.73;100;95706.64;;;;
2019/08/24 02:18:58;;;;;;;26.65;23.85;;;;;;;14.73;100;95706.64;;;;
2019/08/24 02:20:00;;;;;;;26.65;23.85;;;;;;;14.73;100;95706.64;;;;
2019/08/24 02:21:11;;;;;;;26.65;23.85;;;;;;;14.73;100;95706.64;;;;
2019/08/24 02:22:16;;;;;;;26.65;23.85;;;;;;;14.73;100;95706.64;;;;
2019/08/24 02:23:18;;;;;;;26.65;23.85;;;;;;;14.73;100;95706.64;;;;
2019/08/24 02:24:20;;;;;;;26.65;23.85;;;;;;;14.73;100;95706.64;;;;
2019/08/24 02:25:22;;;;;;;26.65;23.85;;;;;;;14.73;100;95706.64;;;;
2019/08/24 02:26:24;;;;;;;28.8;25.75001;;;;;;;14.64;100;95702.7;;;;
2019/08/24 02:27:26;;;;;;;28.8;25.75001;;;;;;;14.64;100;95702.7;;;;
2019/08/24 02:28:28;;;;;;;28.8;25.75001;;;;;;;14.64;100;95702.7;;;;
2019/08/24 02:29:29;;;;;;;28.8;25.75001;;;;;;;14.64;100;95702.7;;;;
2019/08/24 02:30:53;;;;;;;28.8;25.75001;;;;;;;14.64;100;95702.7;;;;
2019/08/24 02:31:56;;;;;;;28.8;25.75001;;;;;;;14.64;100;95702.7;;;;
2019/08/24 02:32:57;;;;;;;28.8;25.75001;;;;;;;14.64;100;95702.7;;;;
2019/08/24 02:34:01;;;;;;;28.8;25.75001;;;;;;;14.64;100;95702.7;;;;
2019/08/24 02:35:05;;;;;;;28.8;25.75001;;;;;;;14.64;100;95702.7;;;;
2019/08/24 02:36:12;;;;;;;28.8;25.75001;;;;;;;14.64;100;95702.7;;;;
2019/08/24 02:37:14;;;;;;;28.75;25.7;;;;;;;14.49;100;95697.45;;;;
2019/08/24 02:38:16;;;;;;;28.75;25.7;;;;;;;14.49;100;95697.45;;;;
2019/08/24 02:39:18;;;;;;;28.75;25.7;;;;;;;14.49;100;95697.45;;;;
2019/08/24 02:40:20;;;;;;;28.75;25.7;;;;;;;14.49;100;95697.45;;;;
2019/08/24 02:41:21;;;;;;;28.75;25.7;;;;;;;14.49;100;95697.45;;;;
2019/08/24 02:42:24;;;;;;;28.75;25.7;;;;;;;14.49;100;95697.45;;;;
2019/08/24 02:43:25;;;;;;;28.75;25.7;;;;;;;14.49;100;95697.45;;;;
2019/08/24 02:44:27;;;;;;;28.75;25.7;;;;;;;14.49;100;95697.45;;;;
2019/08/24 02:45:28;;;;;;;28.75;25.7;;;;;;;14.49;100;95697.45;;;;
2019/08/24 02:46:29;;;;;;;28.75;25.7;;;;;;;14.49;100;95697.45;;;;
2019/08/24 02:47:31;;;;;;;27.55;24.55;;;;;;;14.39;100;95705.06;;;;
2019/08/24 02:48:33;;;;;;;27.55;24.55;;;;;;;14.39;100;95705.06;;;;
2019/08/24 02:49:34;;;;;;;27.55;24.55;;;;;;;14.39;100;95705.06;;;;
2019/08/24 02:50:36;;;;;;;27.55;24.55;;;;;;;14.39;100;95705.06;;;;
2019/08/24 02:51:38;;;;;;;27.55;24.55;;;;;;;14.39;100;95705.06;;;;
2019/08/24 02:52:39;;;;;;;27.55;24.55;;;;;;;14.39;100;95705.06;;;;
2019/08/24 02:53:40;;;;;;;27.55;24.55;;;;;;;14.39;100;95705.06;;;;
2019/08/24 02:54:42;;;;;;;27.55;24.55;;;;;;;14.39;100;95705.06;;;;
2019/08/24 02:55:43;;;;;;;27.55;24.55;;;;;;;14.39;100;95705.06;;;;
2019/08/24 02:56:45;;;;;;;27.55;24.55;;;;;;;14.39;100;95705.06;;;;
2019/08/24 02:57:46;;;;;;;27.55;24.55;;;;;;;14.39;100;95705.06;;;;
2019/08/24 02:58:47;;;;;;;28.1;25;;;;;;;14.24;100;95694.86;;;;
2019/08/24 02:59:49;;;;;;;28.1;25;;;;;;;14.24;100;95694.86;;;;
2019/08/24 03:00:50;;;;;;;28.1;25;;;;;;;14.24;100;95694.86;;;;
2019/08/24 03:01:59;;;;;;;28.1;25;;;;;;;14.24;100;95694.86;;;;
2019/08/24 03:03:11;;;;;;;28.1;25;;;;;;;14.24;100;95694.86;;;;
2019/08/24 03:04:13;;;;;;;28.1;25;;;;;;;14.24;100;95694.86;;;;
2019/08/24 03:05:15;;;;;;;28.1;25;;;;;;;14.24;100;95694.86;;;;
2019/08/24 03:06:17;;;;;;;28.1;25;;;;;;;14.24;100;95694.86;;;;
2019/08/24 03:07:19;;;;;;;28.1;25;;;;;;;14.24;100;95694.86;;;;
2019/08/24 03:08:21;;;;;;;28.1;25;;;;;;;14.24;100;95694.86;;;;
2019/08/24 03:09:22;;;;;;;29.2;25.7;;;;;;;14.16;100;95682.1;;;;
2019/08/24 03:10:25;;;;;;;29.2;25.7;;;;;;;14.16;100;95682.1;;;;
2019/08/24 03:11:27;;;;;;;29.2;25.7;;;;;;;14.16;100;95682.1;;;;
2019/08/24 03:12:29;;;;;;;29.2;25.7;;;;;;;14.16;100;95682.1;;;;
2019/08/24 03:13:31;;;;;;;29.2;25.7;;;;;;;14.16;100;95682.1;;;;
2019/08/24 03:14:32;;;;;;;29.2;25.7;;;;;;;14.16;100;95682.1;;;;
2019/08/24 03:15:34;;;;;;;29.2;25.7;;;;;;;14.16;100;95682.1;;;;
2019/08/24 03:16:35;;;;;;;29.2;25.7;;;;;;;14.16;100;95682.1;;;;
2019/08/24 03:17:37;;;;;;;29.2;25.7;;;;;;;14.16;100;95682.1;;;;
2019/08/24 03:18:39;;;;;;;29.2;25.7;;;;;;;14.16;100;95682.1;;;;
2019/08/24 03:19:40;;;;;;;26.25;23.25;;;;;;;14.02;100;95683.4;;;;
2019/08/24 03:20:41;;;;;;;26.25;23.25;;;;;;;14.02;100;95683.4;;;;
2019/08/24 03:21:43;;;;;;;26.25;23.25;;;;;;;14.02;100;95683.4;;;;
2019/08/24 03:22:45;;;;;;;26.25;23.25;;;;;;;14.02;100;95683.4;;;;
2019/08/24 03:23:46;;;;;;;26.25;23.25;;;;;;;14.02;100;95683.4;;;;
2019/08/24 03:24:48;;;;;;;26.25;23.25;;;;;;;14.02;100;95683.4;;;;
2019/08/24 03:25:49;;;;;;;26.25;23.25;;;;;;;14.02;100;95683.4;;;;
2019/08/24 03:26:51;;;;;;;26.25;23.25;;;;;;;14.02;100;95683.4;;;;
2019/08/24 03:27:52;;;;;;;26.25;23.25;;;;;;;14.02;100;95683.4;;;;
2019/08/24 03:28:54;;;;;;;26.25;23.25;;;;;;;14.02;100;95683.4;;;;
2019/08/24 03:29:55;;;;;;;26.9;23.75;;;;;;;13.96;100;95684.52;;;;
2019/08/24 03:30:56;;;;;;;26.9;23.75;;;;;;;13.96;100;95684.52;;;;
2019/08/24 03:31:58;;;;;;;26.9;23.75;;;;;;;13.96;100;95684.52;;;;
2019/08/24 03:32:59;;;;;;;26.9;23.75;;;;;;;13.96;100;95684.52;;;;
2019/08/24 03:34:01;;;;;;;26.9;23.75;;;;;;;13.96;100;95684.52;;;;
2019/08/24 03:35:05;;;;;;;26.9;23.75;;;;;;;13.96;100;95684.52;;;;
2019/08/24 03:36:08;;;;;;;26.9;23.75;;;;;;;13.96;100;95684.52;;;;
2019/08/24 03:37:10;;;;;;;26.9;23.75;;;;;;;13.96;100;95684.52;;;;
2019/08/24 03:38:12;;;;;;;26.9;23.75;;;;;;;13.96;100;95684.52;;;;
2019/08/24 03:39:13;;;;;;;26.9;23.75;;;;;;;13.96;100;95684.52;;;;
2019/08/24 03:40:16;;;;;;;26.45;23.65;;;;;;;13.84;100;95691.9;;;;
2019/08/24 03:41:18;;;;;;;26.45;23.65;;;;;;;13.84;100;95691.9;;;;
2019/08/24 03:42:20;;;;;;;26.45;23.65;;;;;;;13.84;100;95691.9;;;;
2019/08/24 03:43:21;;;;;;;26.45;23.65;;;;;;;13.84;100;95691.9;;;;
2019/08/24 03:44:22;;;;;;;26.45;23.65;;;;;;;13.84;100;95691.9;;;;
2019/08/24 03:45:24;;;;;;;26.45;23.65;;;;;;;13.84;100;95691.9;;;;
2019/08/24 03:46:27;;;;;;;26.45;23.65;;;;;;;13.84;100;95691.9;;;;
2019/08/24 03:47:32;;;;;;;26.45;23.65;;;;;;;13.84;100;95691.9;;;;
2019/08/24 03:48:33;;;;;;;26.45;23.65;;;;;;;13.84;100;95691.9;;;;
2019/08/24 03:49:35;;;;;;;26.45;23.65;;;;;;;13.84;100;95691.9;;;;
2019/08/24 03:50:36;;;;;;;26.45;23.65;;;;;;;13.84;100;95691.9;;;;
2019/08/24 03:51:38;;;;;;;28.4;23.7;;;;;;;13.78;100;95698.33;;;;
2019/08/24 03:52:40;;;;;;;28.4;23.7;;;;;;;13.78;100;95698.33;;;;
2019/08/24 03:53:41;;;;;;;28.4;23.7;;;;;;;13.78;100;95698.33;;;;
2019/08/24 03:54:42;;;;;;;28.4;23.7;;;;;;;13.78;100;95698.33;;;;
2019/08/24 03:55:43;;;;;;;28.4;23.7;;;;;;;13.78;100;95698.33;;;;
2019/08/24 03:56:45;;;;;;;28.4;23.7;;;;;;;13.78;100;95698.33;;;;
2019/08/24 03:57:46;;;;;;;28.4;23.7;;;;;;;13.78;100;95698.33;;;;
2019/08/24 03:58:47;;;;;;;28.4;23.7;;;;;;;13.78;100;95698.33;;;;
2019/08/24 03:59:49;;;;;;;28.4;23.7;;;;;;;13.78;100;95698.33;;;;
2019/08/24 04:00:50;;;;;;;28.4;23.7;;;;;;;13.78;100;95698.33;;;;
2019/08/24 04:01:51;;;;;;;26.1;23.3;;;;;;;13.66;100;95697.97;;;;
2019/08/24 04:02:53;;;;;;;26.1;23.3;;;;;;;13.66;100;95697.97;;;;
2019/08/24 04:03:54;;;;;;;26.1;23.3;;;;;;;13.66;100;95697.97;;;;
2019/08/24 04:04:56;;;;;;;26.1;23.3;;;;;;;13.66;100;95697.97;;;;
2019/08/24 04:05:57;;;;;;;26.1;23.3;;;;;;;13.66;100;95697.97;;;;
2019/08/24 04:06:59;;;;;;;26.1;23.3;;;;;;;13.66;100;95697.97;;;;
2019/08/24 04:08:00;;;;;;;26.1;23.3;;;;;;;13.66;100;95697.97;;;;
2019/08/24 04:09:01;;;;;;;26.1;23.3;;;;;;;13.66;100;95697.97;;;;
2019/08/24 04:10:11;;;;;;;26.1;23.3;;;;;;;13.66;100;95697.97;;;;
2019/08/24 04:11:15;;;;;;;26.1;23.3;;;;;;;13.66;100;95697.97;;;;
2019/08/24 04:12:16;;;;;;;28.24999;25.2;;;;;;;13.59;100;95680.5;;;;
2019/08/24 04:13:17;;;;;;;28.24999;25.2;;;;;;;13.59;100;95680.5;;;;
2019/08/24 04:14:19;;;;;;;28.24999;25.2;;;;;;;13.59;100;95680.5;;;;
2019/08/24 04:15:20;;;;;;;28.24999;25.2;;;;;;;13.59;100;95680.5;;;;
2019/08/24 04:16:26;;;;;;;28.24999;25.2;;;;;;;13.59;100;95680.5;;;;
2019/08/24 04:17:27;;;;;;;28.24999;25.2;;;;;;;13.59;100;95680.5;;;;
2019/08/24 04:18:28;;;;;;;28.24999;25.2;;;;;;;13.59;100;95680.5;;;;
2019/08/24 04:19:30;;;;;;;28.24999;25.2;;;;;;;13.59;100;95680.5;;;;
2019/08/24 04:20:31;;;;;;;28.24999;25.2;;;;;;;13.59;100;95680.5;;;;
2019/08/24 04:21:33;;;;;;;28.24999;25.2;;;;;;;13.59;100;95680.5;;;;
2019/08/24 04:22:34;;;;;;;28.24999;25.2;;;;;;;13.59;100;95680.5;;;;
2019/08/24 04:23:35;;;;;;;28.1;25.15;;;;;;;13.47;100;95685.71;;;;
2019/08/24 04:24:36;;;;;;;28.1;25.15;;;;;;;13.47;100;95685.71;;;;
2019/08/24 04:25:38;;;;;;;28.1;25.15;;;;;;;13.47;100;95685.71;;;;
2019/08/24 04:26:39;;;;;;;28.1;25.15;;;;;;;13.47;100;95685.71;;;;
2019/08/24 04:27:40;;;;;;;28.1;25.15;;;;;;;13.47;100;95685.71;;;;
2019/08/24 04:28:41;;;;;;;28.1;25.15;;;;;;;13.47;100;95685.71;;;;
2019/08/24 04:29:43;;;;;;;28.1;25.15;;;;;;;13.47;100;95685.71;;;;
2019/08/24 04:30:44;;;;;;;28.1;25.15;;;;;;;13.47;100;95685.71;;;;
2019/08/24 04:31:48;;;;;;;28.1;25.15;;;;;;;13.47;100;95685.71;;;;
2019/08/24 04:32:50;;;;;;;28.1;25.15;;;;;;;13.47;100;95685.71;;;;
2019/08/24 04:33:51;;;;;;;31.9;27.05;;;;;;;13.43;100;95684.01;;;;
2019/08/24 04:34:52;;;;;;;31.9;27.05;;;;;;;13.43;100;95684.01;;;;
2019/08/24 04:35:53;;;;;;;31.9;27.05;;;;;;;13.43;100;95684.01;;;;
2019/08/24 04:36:54;;;;;;;31.9;27.05;;;;;;;13.43;100;95684.01;;;;
2019/08/24 04:37:56;;;;;;;31.9;27.05;;;;;;;13.43;100;95684.01;;;;
2019/08/24 04:38:57;;;;;;;31.9;27.05;;;;;;;13.43;100;95684.01;;;;
2019/08/24 04:39:58;;;;;;;31.9;27.05;;;;;;;13.43;100;95684.01;;;;
2019/08/24 04:40:59;;;;;;;31.9;27.05;;;;;;;13.43;100;95684.01;;;;
2019/08/24 04:42:00;;;;;;;31.9;27.05;;;;;;;13.43;100;95684.01;;;;
2019/08/24 04:43:02;;;;;;;31.9;27.05;;;;;;;13.43;100;95684.01;;;;
2019/08/24 04:44:04;;;;;;;30.8;27.45;;;;;;;13.4;100;95689.9;;;;
2019/08/24 04:45:05;;;;;;;30.8;27.45;;;;;;;13.4;100;95689.9;;;;
2019/08/24 04:46:07;;;;;;;30.8;27.45;;;;;;;13.4;100;95689.9;;;;
2019/08/24 04:47:08;;;;;;;30.8;27.45;;;;;;;13.4;100;95689.9;;;;
2019/08/24 04:48:09;;;;;;;30.8;27.45;;;;;;;13.4;100;95689.9;;;;
2019/08/24 04:49:11;;;;;;;30.8;27.45;;;;;;;13.4;100;95689.9;;;;
2019/08/24 04:50:12;;;;;;;30.8;27.45;;;;;;;13.4;100;95689.9;;;;
2019/08/24 04:51:15;;;;;;;30.8;27.45;;;;;;;13.4;100;95689.9;;;;
2019/08/24 04:52:16;;;;;;;30.8;27.45;;;;;;;13.4;100;95689.9;;;;
2019/08/24 04:53:18;;;;;;;30.8;27.45;;;;;;;13.4;100;95689.9;;;;
2019/08/24 04:54:19;;;;;;;30.8;27.45;;;;;;;13.4;100;95689.9;;;;
2019/08/24 04:55:20;;;;;;;39.4;30.15;;;;;;;13.48;100;95689.94;;;;
2019/08/24 04:56:22;;;;;;;39.4;30.15;;;;;;;13.48;100;95689.94;;;;
2019/08/24 04:57:24;;;;;;;39.4;30.15;;;;;;;13.48;100;95689.94;;;;
2019/08/24 04:58:25;;;;;;;39.4;30.15;;;;;;;13.48;100;95689.94;;;;
2019/08/24 04:59:26;;;;;;;39.4;30.15;;;;;;;13.48;100;95689.94;;;;
2019/08/24 05:00:27;;;;;;;39.4;30.15;;;;;;;13.48;100;95689.94;;;;
2019/08/24 05:01:30;;;;;;;39.4;30.15;;;;;;;13.48;100;95689.94;;;;
2019/08/24 05:02:31;;;;;;;39.4;30.15;;;;;;;13.48;100;95689.94;;;;
2019/08/24 05:03:32;;;;;;;39.4;30.15;;;;;;;13.48;100;95689.94;;;;
2019/08/24 05:04:33;;;;;;;39.4;30.15;;;;;;;13.48;100;95689.94;;;;
2019/08/24 05:05:34;;;;;;;55.6;39;;;;;;;13.62;100;95676.45;;;;
2019/08/24 05:06:36;;;;;;;55.6;39;;;;;;;13.62;100;95676.45;;;;
2019/08/24 05:07:37;;;;;;;55.6;39;;;;;;;13.62;100;95676.45;;;;
2019/08/24 05:08:38;;;;;;;55.6;39;;;;;;;13.62;100;95676.45;;;;
2019/08/24 05:09:39;;;;;;;55.6;39;;;;;;;13.62;100;95676.45;;;;
2019/08/24 05:10:40;;;;;;;55.6;39;;;;;;;13.62;100;95676.45;;;;
2019/08/24 05:11:41;;;;;;;55.6;39;;;;;;;13.62;100;95676.45;;;;
2019/08/24 05:12:43;;;;;;;55.6;39;;;;;;;13.62;100;95676.45;;;;
2019/08/24 05:13:44;;;;;;;55.6;39;;;;;;;13.62;100;95676.45;;;;
2019/08/24 05:14:45;;;;;;;55.6;39;;;;;;;13.62;100;95676.45;;;;
2019/08/24 05:15:46;;;;;;;49.24999;36.10001;;;;;;;13.85;100;95667.63;;;;
2019/08/24 05:16:47;;;;;;;49.24999;36.10001;;;;;;;13.85;100;95667.63;;;;
2019/08/24 05:17:48;;;;;;;49.24999;36.10001;;;;;;;13.85;100;95667.63;;;;
2019/08/24 05:18:49;;;;;;;49.24999;36.10001;;;;;;;13.85;100;95667.63;;;;
2019/08/24 05:19:51;;;;;;;49.24999;36.10001;;;;;;;13.85;100;95667.63;;;;
2019/08/24 05:20:52;;;;;;;49.24999;36.10001;;;;;;;13.85;100;95667.63;;;;
2019/08/24 05:21:53;;;;;;;49.24999;36.10001;;;;;;;13.85;100;95667.63;;;;
2019/08/24 05:22:54;;;;;;;49.24999;36.10001;;;;;;;13.85;100;95667.63;;;;
2019/08/24 05:23:55;;;;;;;49.24999;36.10001;;;;;;;13.85;100;95667.63;;;;
2019/08/24 05:24:57;;;;;;;49.24999;36.10001;;;;;;;13.85;100;95667.63;;;;
2019/08/24 05:25:58;;;;;;;49.24999;36.10001;;;;;;;13.85;100;95667.63;;;;
2019/08/24 05:26:59;;;;;;;62.45;44.9;;;;;;;14.09;100;95671.84;;;;
2019/08/24 05:28:00;;;;;;;62.45;44.9;;;;;;;14.09;100;95671.84;;;;
2019/08/24 05:29:01;;;;;;;62.45;44.9;;;;;;;14.09;100;95671.84;;;;
2019/08/24 05:30:02;;;;;;;62.45;44.9;;;;;;;14.09;100;95671.84;;;;
2019/08/24 05:31:05;;;;;;;62.45;44.9;;;;;;;14.09;100;95671.84;;;;
2019/08/24 05:32:06;;;;;;;62.45;44.9;;;;;;;14.09;100;95671.84;;;;
2019/08/24 05:33:08;;;;;;;62.45;44.9;;;;;;;14.09;100;95671.84;;;;
2019/08/24 05:34:09;;;;;;;62.45;44.9;;;;;;;14.09;100;95671.84;;;;
2019/08/24 05:35:10;;;;;;;62.45;44.9;;;;;;;14.09;100;95671.84;;;;
2019/08/24 05:36:12;;;;;;;62.45;44.9;;;;;;;14.09;100;95671.84;;;;
2019/08/24 05:37:13;;;;;;;65.69998;46.05001;;;;;;;14.46;100;95680.69;;;;
2019/08/24 05:38:14;;;;;;;65.69998;46.05001;;;;;;;14.46;100;95680.69;;;;
2019/08/24 05:39:15;;;;;;;65.69998;46.05001;;;;;;;14.46;100;95680.69;;;;
2019/08/24 05:40:17;;;;;;;65.69998;46.05001;;;;;;;14.46;100;95680.69;;;;
2019/08/24 05:41:21;;;;;;;65.69998;46.05001;;;;;;;14.46;100;95680.69;;;;
2019/08/24 05:42:23;;;;;;;65.69998;46.05001;;;;;;;14.46;100;95680.69;;;;
2019/08/24 05:43:24;;;;;;;65.69998;46.05001;;;;;;;14.46;100;95680.69;;;;
2019/08/24 05:44:25;;;;;;;65.69998;46.05001;;;;;;;14.46;100;95680.69;;;;
2019/08/24 05:45:26;;;;;;;65.69998;46.05001;;;;;;;14.46;100;95680.69;;;;
2019/08/24 05:46:29;;;;;;;65.69998;46.05001;;;;;;;14.46;100;95680.69;;;;
2019/08/24 05:47:30;;;;;;;54.5;41.09999;;;;;;;14.8;100;95679.26;;;;
2019/08/24 05:48:31;;;;;;;54.5;41.09999;;;;;;;14.8;100;95679.26;;;;
2019/08/24 05:49:33;;;;;;;54.5;41.09999;;;;;;;14.8;100;95679.26;;;;
2019/08/24 05:50:34;;;;;;;54.5;41.09999;;;;;;;14.8;100;95679.26;;;;
2019/08/24 05:51:37;;;;;;;54.5;41.09999;;;;;;;14.8;100;95679.26;;;;
2019/08/24 05:52:38;;;;;;;54.5;41.09999;;;;;;;14.8;100;95679.26;;;;
2019/08/24 05:53:39;;;;;;;54.5;41.09999;;;;;;;14.8;100;95679.26;;;;
2019/08/24 05:54:40;;;;;;;54.5;41.09999;;;;;;;14.8;100;95679.26;;;;
2019/08/24 05:55:42;;;;;;;54.5;41.09999;;;;;;;14.8;100;95679.26;;;;
2019/08/24 05:56:43;;;;;;;54.5;41.09999;;;;;;;14.8;100;95679.26;;;;
2019/08/24 05:57:44;;;;;;;54.5;41.09999;;;;;;;14.8;100;95679.26;;;;
2019/08/24 05:58:45;;;;;;;48.9;39.65001;;;;;;;15.29;100;95679.6;;;;
2019/08/24 05:59:46;;;;;;;48.9;39.65001;;;;;;;15.29;100;95679.6;;;;
2019/08/24 06:00:47;;;;;;;48.9;39.65001;;;;;;;15.29;100;95679.6;;;;
2019/08/24 06:01:48;;;;;;;48.9;39.65001;;;;;;;15.29;100;95679.6;;;;
2019/08/24 06:02:50;;;;;;;48.9;39.65001;;;;;;;15.29;100;95679.6;;;;
2019/08/24 06:03:51;;;;;;;48.9;39.65001;;;;;;;15.29;100;95679.6;;;;
2019/08/24 06:04:52;;;;;;;48.9;39.65001;;;;;;;15.29;100;95679.6;;;;
2019/08/24 06:05:53;;;;;;;48.9;39.65001;;;;;;;15.29;100;95679.6;;;;
2019/08/24 06:06:56;;;;;;;48.9;39.65001;;;;;;;15.29;100;95679.6;;;;
2019/08/24 06:07:57;;;;;;;48.9;39.65001;;;;;;;15.29;100;95679.6;;;;
2019/08/24 06:08:58;;;;;;;46;36.85;;;;;;;15.8;100;95683.54;;;;
2019/08/24 06:09:59;;;;;;;46;36.85;;;;;;;15.8;100;95683.54;;;;
2019/08/24 06:11:00;;;;;;;46;36.85;;;;;;;15.8;100;95683.54;;;;